createdAt,value
2019-03-16T00:00:40.837Z,6.31
2019-03-16T00:03:11.258Z,6.35
2019-03-16T00:05:41.830Z,6.39
2019-03-16T00:08:12.431Z,6.34
2019-03-16T00:10:42.950Z,6.42
2019-03-16T00:13:16.071Z,6.40
2019-03-16T00:15:45.932Z,6.45
2019-03-16T00:18:16.868Z,6.44
2019-03-16T00:20:47.272Z,6.45
2019-03-16T00:23:17.727Z,6.41
2019-03-16T00:25:48.235Z,6.42
2019-03-16T00:28:19.502Z,6.40
2019-03-16T00:30:49.897Z,6.43
2019-03-16T00:33:20.248Z,6.43
2019-03-16T00:35:51.696Z,6.43
2019-03-16T00:38:24.395Z,6.44
2019-03-16T00:40:54.742Z,6.45
2019-03-16T00:43:25.245Z,6.47
2019-03-16T00:45:56.051Z,6.45
2019-03-16T00:48:26.704Z,6.45
2019-03-16T00:50:57.237Z,6.40
2019-03-16T00:53:28.108Z,6.37
2019-03-16T00:55:58.396Z,6.47
2019-03-16T00:58:28.997Z,6.45
2019-03-16T01:00:59.315Z,6.43
2019-03-16T01:03:29.725Z,6.37
2019-03-16T01:06:00.228Z,6.41
2019-03-16T01:08:30.732Z,6.33
2019-03-16T01:11:01.203Z,6.34
2019-03-16T01:13:31.583Z,6.28
2019-03-16T01:16:02.056Z,6.30
2019-03-16T01:18:32.550Z,6.27
2019-03-16T01:21:02.929Z,6.32
2019-03-16T01:23:33.463Z,6.36
2019-03-16T01:26:03.866Z,6.34
2019-03-16T01:28:34.372Z,6.36
2019-03-16T01:31:06.529Z,6.43
2019-03-16T01:33:37.111Z,6.42
2019-03-16T01:36:07.604Z,6.37
2019-03-16T01:38:38.030Z,6.33
2019-03-16T01:41:08.618Z,6.36
2019-03-16T01:43:38.958Z,6.37
2019-03-16T01:46:09.403Z,6.34
2019-03-16T01:48:39.814Z,6.37
2019-03-16T01:51:10.379Z,6.32
2019-03-16T01:53:40.776Z,6.44
2019-03-16T01:56:11.331Z,6.36
2019-03-16T01:58:42.490Z,6.33
2019-03-16T02:01:13.948Z,6.37
2019-03-16T02:03:44.460Z,6.34
2019-03-16T02:06:14.913Z,6.30
2019-03-16T02:08:45.343Z,6.32
2019-03-16T02:11:15.674Z,6.31
2019-03-16T02:13:46.273Z,6.27
2019-03-16T02:16:16.619Z,6.32
2019-03-16T02:18:47.154Z,6.25
2019-03-16T02:21:17.461Z,6.24
2019-03-16T02:23:48.013Z,6.23
2019-03-16T02:26:18.401Z,6.23
2019-03-16T02:28:48.844Z,6.19
2019-03-16T02:31:19.270Z,6.18
2019-03-16T02:33:49.923Z,6.20
2019-03-16T02:36:20.446Z,6.20
2019-03-16T02:38:51.457Z,6.16
2019-03-16T02:41:21.932Z,6.16
2019-03-16T02:43:53.359Z,6.16
2019-03-16T02:46:24.003Z,6.17
2019-03-16T02:48:55.235Z,6.11
2019-03-16T02:51:25.680Z,6.10
2019-03-16T02:53:56.035Z,6.13
2019-03-16T02:56:26.348Z,6.08
2019-03-16T02:58:56.908Z,6.09
2019-03-16T03:01:27.230Z,6.07
2019-03-16T03:03:57.589Z,6.07
2019-03-16T03:06:28.100Z,5.99
2019-03-16T03:08:59.627Z,6.01
2019-03-16T03:11:30.029Z,6.02
2019-03-16T03:14:00.451Z,5.98
2019-03-16T03:16:30.888Z,5.97
2019-03-16T03:19:01.212Z,5.96
2019-03-16T03:21:31.707Z,5.96
2019-03-16T03:24:02.132Z,5.98
2019-03-16T03:26:33.459Z,5.97
2019-03-16T03:29:03.873Z,5.93
2019-03-16T03:31:34.327Z,6.00
2019-03-16T03:34:04.674Z,5.97
2019-03-16T03:36:35.067Z,5.96
2019-03-16T03:39:06.583Z,5.98
2019-03-16T03:41:36.933Z,5.96
2019-03-16T03:44:07.436Z,5.97
2019-03-16T03:46:37.901Z,5.96
2019-03-16T03:49:08.759Z,5.91
2019-03-16T03:51:39.127Z,5.92
2019-03-16T03:54:09.687Z,5.93
2019-03-16T03:56:40.169Z,5.92
2019-03-16T03:59:10.491Z,5.92
2019-03-16T04:01:40.863Z,5.94
2019-03-16T04:04:15.625Z,5.91
2019-03-16T04:06:44.603Z,5.90
2019-03-16T04:09:16.619Z,5.98
2019-03-16T04:11:46.965Z,5.87
2019-03-16T04:14:17.596Z,5.87
2019-03-16T04:16:48.226Z,5.88
2019-03-16T04:19:18.644Z,5.86
2019-03-16T04:21:49.360Z,5.84
2019-03-16T04:24:20.144Z,5.84
2019-03-16T04:26:50.820Z,5.85
2019-03-16T04:29:21.502Z,5.87
2019-03-16T04:31:52.068Z,5.86
2019-03-16T04:34:29.238Z,5.88
2019-03-16T04:36:54.711Z,5.82
2019-03-16T04:39:25.127Z,5.76
2019-03-16T04:41:55.576Z,5.78
2019-03-16T04:44:25.830Z,5.80
2019-03-16T04:46:56.190Z,5.80
2019-03-16T04:49:26.536Z,5.78
2019-03-16T04:51:56.978Z,5.80
2019-03-16T04:54:27.333Z,5.82
2019-03-16T04:56:57.995Z,5.78
2019-03-16T04:59:28.336Z,5.80
2019-03-16T05:01:58.658Z,5.83
2019-03-16T05:04:41.627Z,5.80
2019-03-16T05:07:01.263Z,5.77
2019-03-16T05:09:31.664Z,5.77
2019-03-16T05:12:02.171Z,5.75
2019-03-16T05:14:32.610Z,5.71
2019-03-16T05:17:02.996Z,5.70
2019-03-16T05:19:33.376Z,5.61
2019-03-16T05:22:04.959Z,5.57
2019-03-16T05:24:35.330Z,5.53
2019-03-16T05:27:06.021Z,5.52
2019-03-16T05:29:36.337Z,5.50
2019-03-16T05:32:06.661Z,5.57
2019-03-16T05:34:37.010Z,5.58
2019-03-16T05:37:07.785Z,5.59
2019-03-16T05:39:38.201Z,5.62
2019-03-16T05:42:10.169Z,5.63
2019-03-16T05:44:40.515Z,5.70
2019-03-16T05:47:10.944Z,5.64
2019-03-16T05:49:41.400Z,5.63
2019-03-16T05:52:11.860Z,5.68
2019-03-16T05:54:42.433Z,5.74
2019-03-16T05:57:12.986Z,5.77
2019-03-16T05:59:43.322Z,5.74
2019-03-16T06:02:13.850Z,5.84
2019-03-16T06:04:44.347Z,5.85
2019-03-16T06:07:14.913Z,5.89
2019-03-16T06:09:45.476Z,5.93
2019-03-16T06:12:15.885Z,6.00
2019-03-16T06:14:46.326Z,6.06
2019-03-16T06:17:16.683Z,6.07
2019-03-16T06:19:47.208Z,6.13
2019-03-16T06:22:17.675Z,6.23
2019-03-16T06:24:48.221Z,6.21
2019-03-16T06:27:18.564Z,6.24
2019-03-16T06:29:49.078Z,6.11
2019-03-16T06:32:19.499Z,6.15
2019-03-16T06:34:50.078Z,6.19
2019-03-16T06:37:20.508Z,6.47
2019-03-16T06:39:50.952Z,6.74
2019-03-16T06:42:21.398Z,6.78
2019-03-16T06:44:52.102Z,6.56
2019-03-16T06:47:23.292Z,6.63
2019-03-16T06:49:53.861Z,6.64
2019-03-16T06:52:24.581Z,6.95
2019-03-16T06:54:54.939Z,6.97
2019-03-16T06:57:26.940Z,6.83
2019-03-16T06:59:57.790Z,6.84
2019-03-16T07:02:28.227Z,6.74
2019-03-16T07:04:58.706Z,6.73
2019-03-16T07:07:29.093Z,6.65
2019-03-16T07:09:59.515Z,6.65
2019-03-16T07:12:29.979Z,6.64
2019-03-16T07:15:00.540Z,6.61
2019-03-16T07:17:30.879Z,6.67
2019-03-16T07:20:01.356Z,6.76
2019-03-16T07:22:31.914Z,6.84
2019-03-16T07:25:02.762Z,7.07
2019-03-16T07:27:33.102Z,7.19
2019-03-16T07:30:03.917Z,7.00
2019-03-16T07:32:34.397Z,6.86
2019-03-16T07:35:06.153Z,6.98
2019-03-16T07:37:36.611Z,7.12
2019-03-16T07:40:11.586Z,7.34
2019-03-16T07:42:42.116Z,7.24
2019-03-16T07:45:13.056Z,7.28
2019-03-16T07:47:43.480Z,7.33
2019-03-16T07:50:14.203Z,7.66
2019-03-16T07:52:44.691Z,7.59
2019-03-16T07:55:15.766Z,7.41
2019-03-16T07:57:46.341Z,7.42
2019-03-16T08:00:16.761Z,7.30
2019-03-16T08:02:47.176Z,7.63
2019-03-16T08:05:19.213Z,7.79
2019-03-16T08:07:50.044Z,7.65
2019-03-16T08:10:20.701Z,7.65
2019-03-16T08:12:51.069Z,7.61
2019-03-16T08:15:21.512Z,7.65
2019-03-16T08:17:52.332Z,7.70
2019-03-16T08:20:23.007Z,7.69
2019-03-16T08:22:53.743Z,7.69
2019-03-16T08:25:24.248Z,7.66
2019-03-16T08:27:54.910Z,7.69
2019-03-16T08:30:25.338Z,7.82
2019-03-16T08:32:56.536Z,8.29
2019-03-16T08:35:26.997Z,8.48
2019-03-16T08:37:57.367Z,9.13
2019-03-16T08:40:29.297Z,8.39
2019-03-16T08:43:01.140Z,8.59
2019-03-16T08:45:31.822Z,8.43
2019-03-16T08:48:07.971Z,8.59
2019-03-16T08:50:39.017Z,9.10
2019-03-16T08:53:09.571Z,9.45
2019-03-16T08:55:40.447Z,9.68
2019-03-16T08:58:11.148Z,10.76
2019-03-16T09:00:41.779Z,10.02
2019-03-16T09:03:12.291Z,9.73
2019-03-16T09:05:42.642Z,9.67
2019-03-16T09:08:13.288Z,9.41
2019-03-16T09:10:44.237Z,9.06
2019-03-16T09:13:14.893Z,9.02
2019-03-16T09:15:45.314Z,9.58
2019-03-16T09:18:16.007Z,9.39
2019-03-16T09:20:46.551Z,9.29
2019-03-16T09:23:17.056Z,9.07
2019-03-16T09:25:47.722Z,9.03
2019-03-16T09:28:19.192Z,9.26
2019-03-16T09:30:50.085Z,9.49
2019-03-16T09:33:21.079Z,9.78
2019-03-16T09:35:52.094Z,9.52
2019-03-16T09:38:22.749Z,8.95
2019-03-16T09:40:54.162Z,8.89
2019-03-16T09:43:26.847Z,8.65
2019-03-16T09:45:57.341Z,8.68
2019-03-16T09:48:27.991Z,8.64
2019-03-16T09:50:58.449Z,8.45
2019-03-16T09:53:28.981Z,8.39
2019-03-16T09:56:00.787Z,8.43
2019-03-16T09:58:31.824Z,8.49
2019-03-16T10:01:02.651Z,8.54
2019-03-16T10:03:33.217Z,8.86
2019-03-16T10:06:07.129Z,9.09
2019-03-16T10:08:38.007Z,9.03
2019-03-16T10:11:11.153Z,9.08
2019-03-16T10:13:43.706Z,9.13
2019-03-16T10:16:14.463Z,9.17
2019-03-16T10:18:45.768Z,9.38
2019-03-16T10:21:18.801Z,9.36
2019-03-16T10:23:50.511Z,9.08
2019-03-16T10:26:21.456Z,9.45
2019-03-16T10:28:52.404Z,9.74
2019-03-16T10:31:23.496Z,9.66
2019-03-16T10:33:54.675Z,9.60
2019-03-16T10:36:25.365Z,9.49
2019-03-16T10:38:55.943Z,10.13
2019-03-16T10:41:27.121Z,9.85
2019-03-16T10:43:58.396Z,9.87
2019-03-16T10:46:29.597Z,9.99
2019-03-16T10:49:00.132Z,9.96
2019-03-16T10:51:30.978Z,10.63
2019-03-16T10:54:01.856Z,10.24
2019-03-16T10:56:32.519Z,10.22
2019-03-16T10:59:03.191Z,10.75
2019-03-16T11:01:50.977Z,11.22
2019-03-16T11:04:24.047Z,11.69
2019-03-16T11:06:54.609Z,11.18
2019-03-16T11:09:26.710Z,11.49
2019-03-16T11:11:58.276Z,11.49
2019-03-16T11:14:29.871Z,11.62
2019-03-16T11:17:01.020Z,11.47
2019-03-16T11:19:33.318Z,11.05
2019-03-16T11:22:03.980Z,10.79
2019-03-16T11:24:34.589Z,10.80
2019-03-16T11:27:05.265Z,10.62
2019-03-16T11:29:35.829Z,10.28
2019-03-16T11:32:06.770Z,10.33
2019-03-16T11:34:37.257Z,10.57
2019-03-16T11:37:09.278Z,11.18
2019-03-16T11:39:39.795Z,11.37
2019-03-16T11:42:10.299Z,11.22
2019-03-16T11:44:42.577Z,11.24
2019-03-16T11:47:14.143Z,11.01
2019-03-16T11:49:45.482Z,10.94
2019-03-16T11:52:16.478Z,10.75
2019-03-16T11:54:48.251Z,11.15
2019-03-16T11:57:20.784Z,11.19
2019-03-16T11:59:51.468Z,11.18
2019-03-16T12:02:23.637Z,11.04
2019-03-16T12:04:54.107Z,10.79
2019-03-16T12:07:24.933Z,10.92
2019-03-16T12:09:55.581Z,11.00
2019-03-16T12:12:26.421Z,11.30
2019-03-16T12:14:58.475Z,11.54
2019-03-16T12:17:29.908Z,11.30
2019-03-16T12:20:00.400Z,11.09
2019-03-16T12:22:31.213Z,10.90
2019-03-16T12:25:01.799Z,10.57
2019-03-16T12:27:32.593Z,10.58
2019-03-16T12:30:03.488Z,10.19
2019-03-16T12:32:34.403Z,10.31
2019-03-16T12:35:07.507Z,10.35
2019-03-16T12:37:38.186Z,10.52
2019-03-16T12:40:14.700Z,10.73
2019-03-16T12:42:46.046Z,10.68
2019-03-16T12:45:20.611Z,11.26
2019-03-16T12:47:50.846Z,11.46
2019-03-16T12:50:21.203Z,11.45
2019-03-16T12:52:51.655Z,12.07
2019-03-16T12:55:22.689Z,12.30
2019-03-16T12:57:53.576Z,12.23
2019-03-16T13:00:24.323Z,12.35
2019-03-16T13:02:55.344Z,12.90
2019-03-16T13:05:26.787Z,12.94
2019-03-16T13:07:57.687Z,12.51
2019-03-16T13:10:30.106Z,12.89
2019-03-16T13:13:02.837Z,12.62
2019-03-16T13:15:33.514Z,12.59
2019-03-16T13:18:03.920Z,12.18
2019-03-16T13:20:34.459Z,12.14
2019-03-16T13:23:05.329Z,12.34
2019-03-16T13:25:35.758Z,12.39
2019-03-16T13:28:08.364Z,12.04
2019-03-16T13:30:39.074Z,11.84
2019-03-16T13:33:10.169Z,11.97
2019-03-16T13:35:40.807Z,11.92
2019-03-16T13:38:11.712Z,12.07
2019-03-16T13:40:43.066Z,12.19
2019-03-16T13:43:13.594Z,12.03
2019-03-16T13:45:45.015Z,11.74
2019-03-16T13:48:15.379Z,11.68
2019-03-16T13:50:46.168Z,11.39
2019-03-16T13:53:16.593Z,11.43
2019-03-16T13:55:48.931Z,11.62
2019-03-16T13:58:19.614Z,11.63
2019-03-16T14:00:50.353Z,11.43
2019-03-16T14:03:22.319Z,11.26
2019-03-16T14:05:53.103Z,11.39
2019-03-16T14:08:24.072Z,11.19
2019-03-16T14:10:54.807Z,10.98
2019-03-16T14:13:25.986Z,11.19
2019-03-16T14:15:57.732Z,11.04
2019-03-16T14:18:28.642Z,11.07
2019-03-16T14:20:59.148Z,11.25
2019-03-16T14:23:29.592Z,11.14
2019-03-16T14:26:00.990Z,11.14
2019-03-16T14:28:31.534Z,11.23
2019-03-16T14:31:02.398Z,11.20
2019-03-16T14:33:33.729Z,11.23
2019-03-16T14:36:06.962Z,11.35
2019-03-16T14:38:38.102Z,11.28
2019-03-16T14:41:08.744Z,11.26
2019-03-16T14:43:39.916Z,11.24
2019-03-16T14:46:11.821Z,11.22
2019-03-16T14:48:43.102Z,11.36
2019-03-16T14:51:13.890Z,11.15
2019-03-16T14:53:44.474Z,11.08
2019-03-16T14:56:15.668Z,10.94
2019-03-16T14:58:46.152Z,10.79
2019-03-16T15:01:17.045Z,10.71
2019-03-16T15:03:48.326Z,10.64
2019-03-16T15:06:19.729Z,10.62
2019-03-16T15:08:51.319Z,10.54
2019-03-16T15:11:22.391Z,10.45
2019-03-16T15:13:53.819Z,10.29
2019-03-16T15:16:24.300Z,10.20
2019-03-16T15:18:55.227Z,10.06
2019-03-16T15:21:26.175Z,9.99
2019-03-16T15:23:57.775Z,9.96
2019-03-16T15:26:28.290Z,9.93
2019-03-16T15:28:58.981Z,9.81
2019-03-16T15:31:30.056Z,9.83
2019-03-16T15:34:03.960Z,9.66
2019-03-16T15:36:35.608Z,9.58
2019-03-16T15:39:07.417Z,9.46
2019-03-16T15:41:38.305Z,9.38
2019-03-16T15:44:09.207Z,9.27
2019-03-16T15:46:39.963Z,9.05
2019-03-16T15:49:11.476Z,8.90
2019-03-16T15:51:42.622Z,8.73
2019-03-16T15:54:13.591Z,8.58
2019-03-16T15:56:44.517Z,8.51
2019-03-16T15:59:15.125Z,8.37
2019-03-16T16:01:47.153Z,8.29
2019-03-16T16:04:18.127Z,8.15
2019-03-16T16:06:48.978Z,8.06
2019-03-16T16:09:21.768Z,8.04
2019-03-16T16:11:52.744Z,7.94
2019-03-16T16:14:26.249Z,7.84
2019-03-16T16:16:56.765Z,7.78
2019-03-16T16:19:27.644Z,7.69
2019-03-16T16:21:59.549Z,7.63
2019-03-16T16:24:30.597Z,7.52
2019-03-16T16:27:01.219Z,7.47
2019-03-16T16:29:31.715Z,7.42
2019-03-16T16:32:04.782Z,7.35
2019-03-16T16:34:36.202Z,7.27
2019-03-16T16:37:08.058Z,7.17
2019-03-16T16:39:38.799Z,7.05
2019-03-16T16:42:10.175Z,6.98
2019-03-16T16:44:40.950Z,6.90
2019-03-16T16:47:11.785Z,6.82
2019-03-16T16:49:42.459Z,6.74
2019-03-16T16:52:13.997Z,6.62
2019-03-16T16:54:44.485Z,6.53
2019-03-16T16:57:15.274Z,6.42
2019-03-16T16:59:46.610Z,6.39
2019-03-16T17:02:17.013Z,6.32
2019-03-16T17:04:47.728Z,6.29
2019-03-16T17:07:18.498Z,6.22
2019-03-16T17:09:49.363Z,6.20
2019-03-16T17:12:19.932Z,6.14
2019-03-16T17:14:50.333Z,6.09
2019-03-16T17:17:20.983Z,5.98
2019-03-16T17:19:52.039Z,5.86
2019-03-16T17:22:23.498Z,5.80
2019-03-16T17:24:54.051Z,5.72
2019-03-16T17:27:24.762Z,5.61
2019-03-16T17:29:55.545Z,5.57
2019-03-16T17:32:26.316Z,5.47
2019-03-16T17:34:58.082Z,5.40
2019-03-16T17:37:29.166Z,5.35
2019-03-16T17:40:01.093Z,5.34
2019-03-16T17:42:32.685Z,5.26
2019-03-16T17:45:03.184Z,5.21
2019-03-16T17:47:34.120Z,5.18
2019-03-16T17:50:06.733Z,5.11
2019-03-16T17:52:37.232Z,5.09
2019-03-16T17:55:10.344Z,5.08
2019-03-16T17:57:44.910Z,5.05
2019-03-16T18:00:17.506Z,5.09
2019-03-16T18:02:52.571Z,5.06
2019-03-16T18:05:20.544Z,5.06
2019-03-16T18:07:52.910Z,5.08
2019-03-16T18:10:23.454Z,5.06
2019-03-16T18:12:54.315Z,5.05
2019-03-16T18:15:24.681Z,5.08
2019-03-16T18:17:55.069Z,5.07
2019-03-16T18:20:25.809Z,5.03
2019-03-16T18:22:56.413Z,5.04
2019-03-16T18:25:27.117Z,5.06
2019-03-16T18:27:58.320Z,5.05
2019-03-16T18:30:28.806Z,5.05
2019-03-16T18:32:59.583Z,5.05
2019-03-16T18:35:30.322Z,5.00
2019-03-16T18:38:01.132Z,5.01
2019-03-16T18:40:32.244Z,5.01
2019-03-16T18:43:02.888Z,5.01
2019-03-16T18:45:34.287Z,5.00
2019-03-16T18:48:06.131Z,4.99
2019-03-16T18:50:36.681Z,4.99
2019-03-16T18:53:07.378Z,4.97
2019-03-16T18:55:38.379Z,4.98
2019-03-16T18:58:09.342Z,4.97
2019-03-16T19:00:40.171Z,4.95
2019-03-16T19:03:12.110Z,4.97
2019-03-16T19:05:43.157Z,4.96
2019-03-16T19:08:13.734Z,4.97
2019-03-16T19:10:44.376Z,5.00
2019-03-16T19:13:15.010Z,5.00
2019-03-16T19:15:46.324Z,5.00
2019-03-16T19:18:16.835Z,5.00
2019-03-16T19:20:49.342Z,5.00
2019-03-16T19:23:20.898Z,5.03
2019-03-16T19:25:51.669Z,5.04
2019-03-16T19:28:23.937Z,5.04
2019-03-16T19:30:54.453Z,5.04
2019-03-16T19:33:26.723Z,5.06
2019-03-16T19:35:57.649Z,5.07
2019-03-16T19:38:28.182Z,5.08
2019-03-16T19:40:58.811Z,5.07
2019-03-16T19:43:29.969Z,5.09
2019-03-16T19:46:00.796Z,5.10
2019-03-16T19:48:34.374Z,5.12
2019-03-16T19:51:05.389Z,5.15
2019-03-16T19:53:37.195Z,5.15
2019-03-16T19:56:08.934Z,5.16
2019-03-16T19:58:39.530Z,5.16
2019-03-16T20:01:10.242Z,5.18
2019-03-16T20:03:41.007Z,5.18
2019-03-16T20:06:24.859Z,5.20
2019-03-16T20:08:45.657Z,5.20
2019-03-16T20:11:16.491Z,5.23
2019-03-16T20:13:47.274Z,5.24
2019-03-16T20:16:18.139Z,5.24
2019-03-16T20:18:49.885Z,5.25
2019-03-16T20:21:21.029Z,5.26
2019-03-16T20:23:53.670Z,5.29
2019-03-16T20:26:24.059Z,5.28
2019-03-16T20:28:55.296Z,5.29
2019-03-16T20:31:25.718Z,5.31
2019-03-16T20:33:56.256Z,5.33
2019-03-16T20:36:29.500Z,5.33
2019-03-16T20:39:00.526Z,5.35
2019-03-16T20:41:35.916Z,5.37
2019-03-16T20:44:04.360Z,5.41
2019-03-16T20:46:35.550Z,5.42
2019-03-16T20:49:06.353Z,5.43
2019-03-16T20:51:38.192Z,5.44
2019-03-16T20:54:08.781Z,5.45
2019-03-16T20:56:40.036Z,5.45
2019-03-16T20:59:11.460Z,5.48
2019-03-16T21:01:42.565Z,5.49
2019-03-16T21:04:14.046Z,5.50
2019-03-16T21:06:45.456Z,5.51
2019-03-16T21:09:16.475Z,5.56
2019-03-16T21:11:49.509Z,5.59
2019-03-16T21:14:21.963Z,5.59
2019-03-16T21:16:53.480Z,5.60
2019-03-16T21:19:25.393Z,5.63
2019-03-16T21:21:58.101Z,5.65
2019-03-16T21:24:31.085Z,5.69
2019-03-16T21:27:02.004Z,5.71
2019-03-16T21:29:34.172Z,5.72
2019-03-16T21:32:05.087Z,5.76
2019-03-16T21:34:36.611Z,5.78
2019-03-16T21:37:07.536Z,5.79
2019-03-16T21:39:38.524Z,5.80
2019-03-16T21:42:09.532Z,5.84
2019-03-16T21:44:41.764Z,5.85
2019-03-16T21:47:12.637Z,5.88
2019-03-16T21:49:44.902Z,5.90
2019-03-16T21:52:15.932Z,5.92
2019-03-16T21:54:46.618Z,5.97
2019-03-16T21:57:21.542Z,5.98
2019-03-16T21:59:52.274Z,6.00
2019-03-16T22:02:22.835Z,6.02
2019-03-16T22:04:53.991Z,6.05
2019-03-16T22:07:24.932Z,6.06
2019-03-16T22:09:56.709Z,6.06
2019-03-16T22:12:27.182Z,6.09
2019-03-16T22:14:58.446Z,6.10
2019-03-16T22:17:31.059Z,6.15
2019-03-16T22:20:01.797Z,6.16
2019-03-16T22:22:34.074Z,6.20
2019-03-16T22:25:06.638Z,6.22
2019-03-16T22:27:38.516Z,6.27
2019-03-16T22:30:14.520Z,6.31
2019-03-16T22:32:45.333Z,6.39
2019-03-16T22:35:16.174Z,6.42
2019-03-16T22:37:47.011Z,6.47
2019-03-16T22:40:20.663Z,6.49
2019-03-16T22:42:51.287Z,6.53
2019-03-16T22:45:23.407Z,6.53
2019-03-16T22:47:55.491Z,6.57
2019-03-16T22:50:27.276Z,6.61
2019-03-16T22:52:58.089Z,6.62
2019-03-16T22:55:28.974Z,6.66
2019-03-16T22:57:59.396Z,6.68
2019-03-16T23:00:37.271Z,6.70
2019-03-16T23:03:08.302Z,6.74
2019-03-16T23:05:39.565Z,6.77
2019-03-16T23:08:10.334Z,6.80
2019-03-16T23:10:40.917Z,6.83
2019-03-16T23:13:13.304Z,6.81
2019-03-16T23:15:44.098Z,6.85
2019-03-16T23:18:14.877Z,6.88
2019-03-16T23:20:45.402Z,6.90
2019-03-16T23:23:16.131Z,6.91
2019-03-16T23:25:47.003Z,6.93
2019-03-16T23:28:18.469Z,6.95
2019-03-16T23:30:50.411Z,6.95
2019-03-16T23:33:21.033Z,6.96
2019-03-16T23:35:51.511Z,7.04
2019-03-16T23:38:22.175Z,7.05
2019-03-16T23:40:55.317Z,7.05
2019-03-16T23:43:26.115Z,7.10
2019-03-16T23:45:56.627Z,7.13
2019-03-16T23:48:27.061Z,7.19
2019-03-16T23:50:58.714Z,7.25
2019-03-16T23:53:29.282Z,7.28
2019-03-16T23:56:00.382Z,7.32
2019-03-16T23:58:31.088Z,7.37
